sensor_id;sensor_type;location;lat;lon;timestamp;temperature;humidity
20712;DHT22;10517;50.742;4.224;2022-11-30T00:01:22;7.30;99.90
20712;DHT22;10517;50.742;4.224;2022-11-30T00:03:51;7.30;99.90
20712;DHT22;10517;50.742;4.224;2022-11-30T00:06:17;7.20;99.90
20712;DHT22;10517;50.742;4.224;2022-11-30T00:08:48;7.20;99.90
20712;DHT22;10517;50.742;4.224;2022-11-30T00:11:16;7.00;99.90
20712;DHT22;10517;50.742;4.224;2022-11-30T00:13:43;7.00;99.90
20712;DHT22;10517;50.742;4.224;2022-11-30T00:16:08;6.80;99.90
20712;DHT22;10517;50.742;4.224;2022-11-30T00:18:34;6.80;99.90
20712;DHT22;10517;50.742;4.224;2022-11-30T00:21:02;6.90;99.90
20712;DHT22;10517;50.742;4.224;2022-11-30T00:23:35;7.00;99.90
20712;DHT22;10517;50.742;4.224;2022-11-30T00:26:05;7.00;99.90
20712;DHT22;10517;50.742;4.224;2022-11-30T00:28:33;7.00;99.90
20712;DHT22;10517;50.742;4.224;2022-11-30T00:31:01;7.00;99.90
20712;DHT22;10517;50.742;4.224;2022-11-30T00:33:27;7.10;99.90
20712;DHT22;10517;50.742;4.224;2022-11-30T00:35:58;7.20;99.90
20712;DHT22;10517;50.742;4.224;2022-11-30T00:38:24;7.20;99.90
20712;DHT22;10517;50.742;4.224;2022-11-30T00:40:50;7.20;99.90
20712;DHT22;10517;50.742;4.224;2022-11-30T00:43:16;7.20;99.90
20712;DHT22;10517;50.742;4.224;2022-11-30T00:45:41;7.20;99.90
20712;DHT22;10517;50.742;4.224;2022-11-30T00:48:07;7.30;99.90
20712;DHT22;10517;50.742;4.224;2022-11-30T00:50:32;7.30;99.90
20712;DHT22;10517;50.742;4.224;2022-11-30T00:52:58;7.30;99.90
20712;DHT22;10517;50.742;4.224;2022-11-30T00:55:24;7.30;99.90
20712;DHT22;10517;50.742;4.224;2022-11-30T00:57:50;7.40;99.90
20712;DHT22;10517;50.742;4.224;2022-11-30T01:00:16;7.40;99.90
20712;DHT22;10517;50.742;4.224;2022-11-30T01:02:42;7.30;99.90
20712;DHT22;10517;50.742;4.224;2022-11-30T01:05:07;7.40;99.90
20712;DHT22;10517;50.742;4.224;2022-11-30T01:07:33;7.50;99.90
20712;DHT22;10517;50.742;4.224;2022-11-30T01:09:59;7.40;99.90
20712;DHT22;10517;50.742;4.224;2022-11-30T01:12:24;7.50;99.90
20712;DHT22;10517;50.742;4.224;2022-11-30T01:14:50;7.40;99.90
20712;DHT22;10517;50.742;4.224;2022-11-30T01:17:15;7.50;99.90
20712;DHT22;10517;50.742;4.224;2022-11-30T01:19:41;7.40;99.90
20712;DHT22;10517;50.742;4.224;2022-11-30T01:22:06;7.40;99.90
20712;DHT22;10517;50.742;4.224;2022-11-30T01:24:32;7.30;99.90
20712;DHT22;10517;50.742;4.224;2022-11-30T01:26:58;7.30;99.90
20712;DHT22;10517;50.742;4.224;2022-11-30T01:29:23;7.40;99.90
20712;DHT22;10517;50.742;4.224;2022-11-30T01:31:49;7.40;99.90
20712;DHT22;10517;50.742;4.224;2022-11-30T01:34:14;7.40;99.90
20712;DHT22;10517;50.742;4.224;2022-11-30T01:36:40;7.40;99.90
20712;DHT22;10517;50.742;4.224;2022-11-30T01:39:07;7.40;99.90
20712;DHT22;10517;50.742;4.224;2022-11-30T01:41:36;7.40;99.90
20712;DHT22;10517;50.742;4.224;2022-11-30T01:51:40;7.40;99.90
20712;DHT22;10517;50.742;4.224;2022-11-30T01:54:12;7.40;99.90
20712;DHT22;10517;50.742;4.224;2022-11-30T01:56:45;7.50;99.90
20712;DHT22;10517;50.742;4.224;2022-11-30T01:59:11;7.50;99.90
20712;DHT22;10517;50.742;4.224;2022-11-30T02:01:37;7.50;99.90
20712;DHT22;10517;50.742;4.224;2022-11-30T02:04:20;7.50;99.90
20712;DHT22;10517;50.742;4.224;2022-11-30T02:06:47;7.40;99.90
20712;DHT22;10517;50.742;4.224;2022-11-30T02:09:15;7.40;99.90
20712;DHT22;10517;50.742;4.224;2022-11-30T02:11:42;7.30;99.90
20712;DHT22;10517;50.742;4.224;2022-11-30T02:20:20;7.30;99.90
20712;DHT22;10517;50.742;4.224;2022-11-30T02:31:21;7.40;99.90
20712;DHT22;10517;50.742;4.224;2022-11-30T02:33:49;7.40;99.90
20712;DHT22;10517;50.742;4.224;2022-11-30T02:36:16;7.40;99.90
20712;DHT22;10517;50.742;4.224;2022-11-30T02:38:43;7.40;99.90
20712;DHT22;10517;50.742;4.224;2022-11-30T02:41:09;7.50;99.90
20712;DHT22;10517;50.742;4.224;2022-11-30T02:43:34;7.50;99.90
20712;DHT22;10517;50.742;4.224;2022-11-30T02:46:25;7.60;99.90
20712;DHT22;10517;50.742;4.224;2022-11-30T02:49:05;7.50;99.90
20712;DHT22;10517;50.742;4.224;2022-11-30T02:51:33;7.50;99.90
20712;DHT22;10517;50.742;4.224;2022-11-30T02:53:59;7.50;99.90
20712;DHT22;10517;50.742;4.224;2022-11-30T02:56:25;7.50;99.90
20712;DHT22;10517;50.742;4.224;2022-11-30T02:58:51;7.60;99.90
20712;DHT22;10517;50.742;4.224;2022-11-30T03:01:17;7.50;99.90
20712;DHT22;10517;50.742;4.224;2022-11-30T03:03:42;7.50;99.90
20712;DHT22;10517;50.742;4.224;2022-11-30T03:06:09;7.50;99.90
20712;DHT22;10517;50.742;4.224;2022-11-30T03:08:34;7.40;99.90
20712;DHT22;10517;50.742;4.224;2022-11-30T03:11:02;7.40;99.90
20712;DHT22;10517;50.742;4.224;2022-11-30T03:13:29;7.40;99.90
20712;DHT22;10517;50.742;4.224;2022-11-30T03:15:55;7.50;99.90
20712;DHT22;10517;50.742;4.224;2022-11-30T03:18:20;7.40;99.90
20712;DHT22;10517;50.742;4.224;2022-11-30T03:20:46;7.60;99.90
20712;DHT22;10517;50.742;4.224;2022-11-30T03:23:11;7.60;99.90
20712;DHT22;10517;50.742;4.224;2022-11-30T03:25:37;7.60;99.90
20712;DHT22;10517;50.742;4.224;2022-11-30T03:28:03;7.60;99.90
20712;DHT22;10517;50.742;4.224;2022-11-30T03:30:28;7.60;99.90
20712;DHT22;10517;50.742;4.224;2022-11-30T03:32:54;7.60;99.90
20712;DHT22;10517;50.742;4.224;2022-11-30T03:35:20;7.80;99.90
20712;DHT22;10517;50.742;4.224;2022-11-30T03:37:46;7.70;99.90
20712;DHT22;10517;50.742;4.224;2022-11-30T03:40:12;7.60;99.90
20712;DHT22;10517;50.742;4.224;2022-11-30T03:42:37;7.60;99.90
20712;DHT22;10517;50.742;4.224;2022-11-30T03:45:03;7.60;99.90
20712;DHT22;10517;50.742;4.224;2022-11-30T03:47:29;7.50;99.90
20712;DHT22;10517;50.742;4.224;2022-11-30T03:49:55;7.40;99.90
20712;DHT22;10517;50.742;4.224;2022-11-30T03:52:20;7.50;99.90
20712;DHT22;10517;50.742;4.224;2022-11-30T03:54:46;7.50;99.90
20712;DHT22;10517;50.742;4.224;2022-11-30T03:57:11;7.40;99.90
20712;DHT22;10517;50.742;4.224;2022-11-30T03:59:37;7.30;99.90
20712;DHT22;10517;50.742;4.224;2022-11-30T04:02:03;7.30;99.90
20712;DHT22;10517;50.742;4.224;2022-11-30T04:04:28;7.20;99.90
20712;DHT22;10517;50.742;4.224;2022-11-30T04:06:54;7.20;99.90
20712;DHT22;10517;50.742;4.224;2022-11-30T04:09:19;7.30;99.90
20712;DHT22;10517;50.742;4.224;2022-11-30T04:11:45;7.40;99.90
20712;DHT22;10517;50.742;4.224;2022-11-30T04:14:11;7.40;99.90
20712;DHT22;10517;50.742;4.224;2022-11-30T04:16:36;7.40;99.90
20712;DHT22;10517;50.742;4.224;2022-11-30T04:19:02;7.40;99.90
20712;DHT22;10517;50.742;4.224;2022-11-30T04:21:28;7.40;99.90
20712;DHT22;10517;50.742;4.224;2022-11-30T04:23:54;7.30;99.90
20712;DHT22;10517;50.742;4.224;2022-11-30T04:26:19;7.30;99.90
20712;DHT22;10517;50.742;4.224;2022-11-30T04:28:45;7.30;99.90
20712;DHT22;10517;50.742;4.224;2022-11-30T04:31:10;7.30;99.90
20712;DHT22;10517;50.742;4.224;2022-11-30T04:33:36;7.30;99.90
20712;DHT22;10517;50.742;4.224;2022-11-30T04:36:04;7.50;99.90
20712;DHT22;10517;50.742;4.224;2022-11-30T04:38:31;7.40;99.90
20712;DHT22;10517;50.742;4.224;2022-11-30T04:40:57;7.20;99.90
20712;DHT22;10517;50.742;4.224;2022-11-30T04:43:23;7.10;99.90
20712;DHT22;10517;50.742;4.224;2022-11-30T04:45:49;7.10;99.90
20712;DHT22;10517;50.742;4.224;2022-11-30T04:48:18;7.10;99.90
20712;DHT22;10517;50.742;4.224;2022-11-30T04:50:44;7.10;99.90
20712;DHT22;10517;50.742;4.224;2022-11-30T04:53:09;7.20;99.90
20712;DHT22;10517;50.742;4.224;2022-11-30T04:55:38;7.10;99.90
20712;DHT22;10517;50.742;4.224;2022-11-30T04:58:05;7.00;99.90
20712;DHT22;10517;50.742;4.224;2022-11-30T05:00:30;6.90;99.90
20712;DHT22;10517;50.742;4.224;2022-11-30T05:02:56;6.90;99.90
20712;DHT22;10517;50.742;4.224;2022-11-30T05:05:22;7.00;99.90
20712;DHT22;10517;50.742;4.224;2022-11-30T05:07:49;7.00;99.90
20712;DHT22;10517;50.742;4.224;2022-11-30T05:10:15;7.00;99.90
20712;DHT22;10517;50.742;4.224;2022-11-30T05:12:41;6.90;99.90
20712;DHT22;10517;50.742;4.224;2022-11-30T05:15:07;7.00;99.90
20712;DHT22;10517;50.742;4.224;2022-11-30T05:17:33;7.10;99.90
20712;DHT22;10517;50.742;4.224;2022-11-30T05:19:58;7.00;99.90
20712;DHT22;10517;50.742;4.224;2022-11-30T05:22:24;6.90;99.90
20712;DHT22;10517;50.742;4.224;2022-11-30T05:24:49;6.60;99.90
20712;DHT22;10517;50.742;4.224;2022-11-30T05:27:15;6.60;99.90
20712;DHT22;10517;50.742;4.224;2022-11-30T05:29:41;6.60;99.90
20712;DHT22;10517;50.742;4.224;2022-11-30T05:32:06;6.50;99.90
20712;DHT22;10517;50.742;4.224;2022-11-30T05:34:32;6.60;99.90
20712;DHT22;10517;50.742;4.224;2022-11-30T05:36:57;6.50;99.90
20712;DHT22;10517;50.742;4.224;2022-11-30T05:39:24;6.60;99.90
20712;DHT22;10517;50.742;4.224;2022-11-30T05:41:50;6.80;99.90
20712;DHT22;10517;50.742;4.224;2022-11-30T05:44:15;6.60;99.90
20712;DHT22;10517;50.742;4.224;2022-11-30T05:46:41;6.40;99.90
20712;DHT22;10517;50.742;4.224;2022-11-30T05:49:07;6.40;99.90
20712;DHT22;10517;50.742;4.224;2022-11-30T05:51:32;6.50;99.90
20712;DHT22;10517;50.742;4.224;2022-11-30T05:53:58;6.80;99.90
20712;DHT22;10517;50.742;4.224;2022-11-30T05:56:24;6.90;99.90
20712;DHT22;10517;50.742;4.224;2022-11-30T05:58:49;6.80;99.90
20712;DHT22;10517;50.742;4.224;2022-11-30T06:01:27;6.80;99.90
20712;DHT22;10517;50.742;4.224;2022-11-30T06:03:54;6.80;99.90
20712;DHT22;10517;50.742;4.224;2022-11-30T06:06:19;6.80;99.90
20712;DHT22;10517;50.742;4.224;2022-11-30T06:08:46;6.50;99.90
20712;DHT22;10517;50.742;4.224;2022-11-30T06:11:12;6.30;99.90
20712;DHT22;10517;50.742;4.224;2022-11-30T06:13:39;6.30;99.90
20712;DHT22;10517;50.742;4.224;2022-11-30T06:16:05;6.40;99.90
20712;DHT22;10517;50.742;4.224;2022-11-30T06:18:31;6.40;99.90
20712;DHT22;10517;50.742;4.224;2022-11-30T06:21:00;6.30;99.90
20712;DHT22;10517;50.742;4.224;2022-11-30T06:23:27;6.30;99.90
20712;DHT22;10517;50.742;4.224;2022-11-30T06:25:52;6.40;99.90
20712;DHT22;10517;50.742;4.224;2022-11-30T06:28:18;6.60;99.90
20712;DHT22;10517;50.742;4.224;2022-11-30T06:30:43;6.70;99.90
20712;DHT22;10517;50.742;4.224;2022-11-30T06:33:09;6.70;99.90
20712;DHT22;10517;50.742;4.224;2022-11-30T06:35:34;6.70;99.90
20712;DHT22;10517;50.742;4.224;2022-11-30T06:38:00;6.60;99.90
20712;DHT22;10517;50.742;4.224;2022-11-30T06:40:26;6.50;99.90
20712;DHT22;10517;50.742;4.224;2022-11-30T06:42:53;6.40;99.90
20712;DHT22;10517;50.742;4.224;2022-11-30T06:45:18;6.40;99.90
20712;DHT22;10517;50.742;4.224;2022-11-30T06:47:44;6.40;99.90
20712;DHT22;10517;50.742;4.224;2022-11-30T06:50:11;6.50;99.90
20712;DHT22;10517;50.742;4.224;2022-11-30T06:52:37;6.60;99.90
20712;DHT22;10517;50.742;4.224;2022-11-30T06:55:03;6.60;99.90
20712;DHT22;10517;50.742;4.224;2022-11-30T06:57:29;6.60;99.90
20712;DHT22;10517;50.742;4.224;2022-11-30T06:59:55;6.30;99.90
20712;DHT22;10517;50.742;4.224;2022-11-30T07:02:22;6.30;99.90
20712;DHT22;10517;50.742;4.224;2022-11-30T07:04:48;6.30;99.90
20712;DHT22;10517;50.742;4.224;2022-11-30T07:07:14;6.30;99.90
20712;DHT22;10517;50.742;4.224;2022-11-30T07:09:40;6.30;99.90
20712;DHT22;10517;50.742;4.224;2022-11-30T07:12:06;6.30;99.90
20712;DHT22;10517;50.742;4.224;2022-11-30T07:14:32;6.20;99.90
20712;DHT22;10517;50.742;4.224;2022-11-30T07:16:57;6.10;99.90
20712;DHT22;10517;50.742;4.224;2022-11-30T07:19:23;5.90;99.90
20712;DHT22;10517;50.742;4.224;2022-11-30T07:21:48;6.00;99.90
20712;DHT22;10517;50.742;4.224;2022-11-30T07:24:14;6.00;99.90
20712;DHT22;10517;50.742;4.224;2022-11-30T07:26:59;6.00;99.90
20712;DHT22;10517;50.742;4.224;2022-11-30T07:29:26;6.00;99.90
20712;DHT22;10517;50.742;4.224;2022-11-30T07:31:52;6.10;99.90
20712;DHT22;10517;50.742;4.224;2022-11-30T07:34:18;6.10;99.90
20712;DHT22;10517;50.742;4.224;2022-11-30T07:36:44;6.20;99.90
20712;DHT22;10517;50.742;4.224;2022-11-30T07:39:10;6.10;99.90
20712;DHT22;10517;50.742;4.224;2022-11-30T07:41:37;6.10;99.90
20712;DHT22;10517;50.742;4.224;2022-11-30T07:44:06;6.00;99.90
20712;DHT22;10517;50.742;4.224;2022-11-30T07:46:33;6.00;99.90
20712;DHT22;10517;50.742;4.224;2022-11-30T07:49:02;6.10;99.90
20712;DHT22;10517;50.742;4.224;2022-11-30T07:51:28;6.00;99.90
20712;DHT22;10517;50.742;4.224;2022-11-30T07:53:55;6.00;99.90
20712;DHT22;10517;50.742;4.224;2022-11-30T07:56:21;5.90;99.90
20712;DHT22;10517;50.742;4.224;2022-11-30T07:58:51;6.00;99.90
20712;DHT22;10517;50.742;4.224;2022-11-30T08:01:19;6.10;99.90
20712;DHT22;10517;50.742;4.224;2022-11-30T08:03:46;6.00;99.90
20712;DHT22;10517;50.742;4.224;2022-11-30T08:06:32;5.90;99.90
20712;DHT22;10517;50.742;4.224;2022-11-30T08:08:59;5.70;99.90
20712;DHT22;10517;50.742;4.224;2022-11-30T08:11:28;5.70;99.90
20712;DHT22;10517;50.742;4.224;2022-11-30T08:13:55;5.80;99.90
20712;DHT22;10517;50.742;4.224;2022-11-30T08:16:22;5.90;99.90
20712;DHT22;10517;50.742;4.224;2022-11-30T08:18:49;5.90;99.90
20712;DHT22;10517;50.742;4.224;2022-11-30T08:21:18;6.10;99.90
20712;DHT22;10517;50.742;4.224;2022-11-30T08:23:46;6.10;99.90
20712;DHT22;10517;50.742;4.224;2022-11-30T08:26:14;6.30;99.90
20712;DHT22;10517;50.742;4.224;2022-11-30T08:28:41;6.20;99.90
20712;DHT22;10517;50.742;4.224;2022-11-30T08:31:09;6.10;99.90
20712;DHT22;10517;50.742;4.224;2022-11-30T08:33:36;6.10;99.90
20712;DHT22;10517;50.742;4.224;2022-11-30T08:36:13;6.30;99.90
20712;DHT22;10517;50.742;4.224;2022-11-30T08:38:40;6.50;99.90
20712;DHT22;10517;50.742;4.224;2022-11-30T08:41:06;6.60;99.90
20712;DHT22;10517;50.742;4.224;2022-11-30T08:43:32;6.40;99.90
20712;DHT22;10517;50.742;4.224;2022-11-30T08:45:58;6.50;99.90
20712;DHT22;10517;50.742;4.224;2022-11-30T08:48:25;6.50;99.90
20712;DHT22;10517;50.742;4.224;2022-11-30T08:50:51;6.50;99.90
20712;DHT22;10517;50.742;4.224;2022-11-30T08:53:17;6.50;99.90
20712;DHT22;10517;50.742;4.224;2022-11-30T08:55:42;6.30;99.90
20712;DHT22;10517;50.742;4.224;2022-11-30T08:58:08;6.30;99.90
20712;DHT22;10517;50.742;4.224;2022-11-30T09:00:33;6.30;99.90
20712;DHT22;10517;50.742;4.224;2022-11-30T09:02:59;6.20;99.90
20712;DHT22;10517;50.742;4.224;2022-11-30T09:05:24;6.30;99.90
20712;DHT22;10517;50.742;4.224;2022-11-30T09:07:50;6.30;99.90
20712;DHT22;10517;50.742;4.224;2022-11-30T09:10:15;6.40;99.90
20712;DHT22;10517;50.742;4.224;2022-11-30T09:12:41;6.40;99.90
20712;DHT22;10517;50.742;4.224;2022-11-30T09:15:08;6.40;99.90
20712;DHT22;10517;50.742;4.224;2022-11-30T09:17:34;6.30;99.90
20712;DHT22;10517;50.742;4.224;2022-11-30T09:20:00;6.40;99.90
20712;DHT22;10517;50.742;4.224;2022-11-30T09:22:27;6.30;99.90
20712;DHT22;10517;50.742;4.224;2022-11-30T09:24:52;6.50;99.90
20712;DHT22;10517;50.742;4.224;2022-11-30T09:27:18;6.70;99.90
20712;DHT22;10517;50.742;4.224;2022-11-30T09:29:44;6.80;99.90
20712;DHT22;10517;50.742;4.224;2022-11-30T09:32:10;6.80;99.90
20712;DHT22;10517;50.742;4.224;2022-11-30T09:34:35;6.90;99.90
20712;DHT22;10517;50.742;4.224;2022-11-30T09:37:01;6.90;99.90
20712;DHT22;10517;50.742;4.224;2022-11-30T09:39:26;6.80;99.90
20712;DHT22;10517;50.742;4.224;2022-11-30T09:47:26;6.90;99.90
20712;DHT22;10517;50.742;4.224;2022-11-30T09:50:20;7.00;99.90
20712;DHT22;10517;50.742;4.224;2022-11-30T09:52:52;7.00;99.90
20712;DHT22;10517;50.742;4.224;2022-11-30T09:55:40;6.90;99.90
20712;DHT22;10517;50.742;4.224;2022-11-30T09:58:09;6.80;99.90
20712;DHT22;10517;50.742;4.224;2022-11-30T10:00:38;6.90;99.90
20712;DHT22;10517;50.742;4.224;2022-11-30T10:03:04;7.00;99.90
20712;DHT22;10517;50.742;4.224;2022-11-30T10:05:44;7.30;99.90
20712;DHT22;10517;50.742;4.224;2022-11-30T10:11:08;7.40;99.90
20712;DHT22;10517;50.742;4.224;2022-11-30T10:19:18;7.20;99.90
20712;DHT22;10517;50.742;4.224;2022-11-30T10:27:17;7.80;99.90
20712;DHT22;10517;50.742;4.224;2022-11-30T10:29:43;8.00;99.90
20712;DHT22;10517;50.742;4.224;2022-11-30T10:32:20;8.10;99.90
20712;DHT22;10517;50.742;4.224;2022-11-30T10:34:51;8.30;99.90
20712;DHT22;10517;50.742;4.224;2022-11-30T10:37:21;8.30;99.90
20712;DHT22;10517;50.742;4.224;2022-11-30T10:39:57;8.50;99.90
20712;DHT22;10517;50.742;4.224;2022-11-30T10:42:48;8.50;99.90
20712;DHT22;10517;50.742;4.224;2022-11-30T10:45:22;8.40;99.90
20712;DHT22;10517;50.742;4.224;2022-11-30T10:47:58;8.10;99.90
20712;DHT22;10517;50.742;4.224;2022-11-30T10:50:27;8.10;99.90
20712;DHT22;10517;50.742;4.224;2022-11-30T10:52:58;8.30;99.90
20712;DHT22;10517;50.742;4.224;2022-11-30T10:55:30;8.70;99.90
20712;DHT22;10517;50.742;4.224;2022-11-30T11:03:29;9.00;99.90
20712;DHT22;10517;50.742;4.224;2022-11-30T11:06:20;8.60;99.90
20712;DHT22;10517;50.742;4.224;2022-11-30T11:08:47;8.10;99.90
20712;DHT22;10517;50.742;4.224;2022-11-30T11:11:45;8.10;99.90
20712;DHT22;10517;50.742;4.224;2022-11-30T11:14:19;8.60;99.90
20712;DHT22;10517;50.742;4.224;2022-11-30T11:16:55;9.10;99.90
20712;DHT22;10517;50.742;4.224;2022-11-30T11:21:49;9.10;99.90
20712;DHT22;10517;50.742;4.224;2022-11-30T11:24:15;8.90;99.90
20712;DHT22;10517;50.742;4.224;2022-11-30T11:26:51;8.80;99.90
20712;DHT22;10517;50.742;4.224;2022-11-30T11:29:30;8.60;99.90
20712;DHT22;10517;50.742;4.224;2022-11-30T11:32:12;8.40;99.90
20712;DHT22;10517;50.742;4.224;2022-11-30T11:34:40;8.30;99.90
20712;DHT22;10517;50.742;4.224;2022-11-30T11:37:26;8.20;99.90
20712;DHT22;10517;50.742;4.224;2022-11-30T11:40:16;8.10;99.90
20712;DHT22;10517;50.742;4.224;2022-11-30T11:42:46;8.30;99.90
20712;DHT22;10517;50.742;4.224;2022-11-30T11:45:22;8.30;99.90
20712;DHT22;10517;50.742;4.224;2022-11-30T11:50:27;8.40;99.90
20712;DHT22;10517;50.742;4.224;2022-11-30T11:53:15;8.30;99.90
20712;DHT22;10517;50.742;4.224;2022-11-30T11:56:10;8.10;99.90
20712;DHT22;10517;50.742;4.224;2022-11-30T11:58:44;8.00;99.90
20712;DHT22;10517;50.742;4.224;2022-11-30T12:01:20;7.90;99.90
20712;DHT22;10517;50.742;4.224;2022-11-30T12:04:05;7.90;99.90
20712;DHT22;10517;50.742;4.224;2022-11-30T12:06:36;7.90;99.90
20712;DHT22;10517;50.742;4.224;2022-11-30T12:09:26;7.90;99.90
20712;DHT22;10517;50.742;4.224;2022-11-30T12:11:54;7.90;99.90
20712;DHT22;10517;50.742;4.224;2022-11-30T12:14:19;7.80;99.90
20712;DHT22;10517;50.742;4.224;2022-11-30T12:25:51;8.50;99.90
20712;DHT22;10517;50.742;4.224;2022-11-30T12:34:42;8.70;99.90
20712;DHT22;10517;50.742;4.224;2022-11-30T12:38:13;8.60;99.90
20712;DHT22;10517;50.742;4.224;2022-11-30T12:40:28;8.90;99.90
20712;DHT22;10517;50.742;4.224;2022-11-30T12:45:42;9.30;99.90
20712;DHT22;10517;50.742;4.224;2022-11-30T12:51:59;9.50;99.90
20712;DHT22;10517;50.742;4.224;2022-11-30T12:54:22;9.80;99.90
20712;DHT22;10517;50.742;4.224;2022-11-30T12:57:01;9.60;99.90
20712;DHT22;10517;50.742;4.224;2022-11-30T13:05:06;9.60;99.90
20712;DHT22;10517;50.742;4.224;2022-11-30T13:07:48;9.60;99.90
20712;DHT22;10517;50.742;4.224;2022-11-30T13:10:32;9.60;99.90
20712;DHT22;10517;50.742;4.224;2022-11-30T13:13:00;9.40;99.90
20712;DHT22;10517;50.742;4.224;2022-11-30T13:15:32;9.30;99.90
20712;DHT22;10517;50.742;4.224;2022-11-30T13:17:59;9.20;99.90
20712;DHT22;10517;50.742;4.224;2022-11-30T13:20:43;9.20;99.90
20712;DHT22;10517;50.742;4.224;2022-11-30T13:31:13;9.10;99.90
20712;DHT22;10517;50.742;4.224;2022-11-30T13:36:38;9.40;99.90
20712;DHT22;10517;50.742;4.224;2022-11-30T13:41:48;9.50;99.90
20712;DHT22;10517;50.742;4.224;2022-11-30T13:44:32;9.60;99.90
20712;DHT22;10517;50.742;4.224;2022-11-30T13:49:56;9.50;99.90
20712;DHT22;10517;50.742;4.224;2022-11-30T13:53:16;9.50;99.90
20712;DHT22;10517;50.742;4.224;2022-11-30T13:58:08;9.20;99.90
20712;DHT22;10517;50.742;4.224;2022-11-30T14:05:39;8.70;99.90
20712;DHT22;10517;50.742;4.224;2022-11-30T14:10:31;8.70;99.90
20712;DHT22;10517;50.742;4.224;2022-11-30T14:20:43;8.60;99.90
20712;DHT22;10517;50.742;4.224;2022-11-30T14:26:09;8.40;99.90
20712;DHT22;10517;50.742;4.224;2022-11-30T14:29:24;8.50;99.90
20712;DHT22;10517;50.742;4.224;2022-11-30T14:31:33;8.50;99.90
20712;DHT22;10517;50.742;4.224;2022-11-30T14:34:07;8.40;99.90
20712;DHT22;10517;50.742;4.224;2022-11-30T14:36:42;8.40;99.90
20712;DHT22;10517;50.742;4.224;2022-11-30T14:39:36;8.40;99.90
20712;DHT22;10517;50.742;4.224;2022-11-30T14:42:04;8.50;99.90
20712;DHT22;10517;50.742;4.224;2022-11-30T14:44:34;8.70;99.90
20712;DHT22;10517;50.742;4.224;2022-11-30T14:49:46;8.60;99.90
20712;DHT22;10517;50.742;4.224;2022-11-30T14:52:14;8.60;99.90
20712;DHT22;10517;50.742;4.224;2022-11-30T14:57:35;8.50;99.90
20712;DHT22;10517;50.742;4.224;2022-11-30T15:00:04;8.30;99.90
20712;DHT22;10517;50.742;4.224;2022-11-30T15:02:36;8.20;99.90
20712;DHT22;10517;50.742;4.224;2022-11-30T15:05:07;8.20;99.90
20712;DHT22;10517;50.742;4.224;2022-11-30T15:07:37;8.20;99.90
20712;DHT22;10517;50.742;4.224;2022-11-30T15:10:24;8.30;99.90
20712;DHT22;10517;50.742;4.224;2022-11-30T15:12:51;8.20;99.90
20712;DHT22;10517;50.742;4.224;2022-11-30T15:23:16;7.90;99.90
20712;DHT22;10517;50.742;4.224;2022-11-30T15:25:48;7.80;99.90
20712;DHT22;10517;50.742;4.224;2022-11-30T15:28:23;7.80;99.90
20712;DHT22;10517;50.742;4.224;2022-11-30T15:30:55;7.70;99.90
20712;DHT22;10517;50.742;4.224;2022-11-30T15:33:24;7.70;99.90
20712;DHT22;10517;50.742;4.224;2022-11-30T15:35:53;7.60;99.90
20712;DHT22;10517;50.742;4.224;2022-11-30T15:38:23;7.70;99.90
20712;DHT22;10517;50.742;4.224;2022-11-30T15:40:49;7.80;99.90
20712;DHT22;10517;50.742;4.224;2022-11-30T15:43:22;7.80;99.90
20712;DHT22;10517;50.742;4.224;2022-11-30T15:45:56;7.80;99.90
20712;DHT22;10517;50.742;4.224;2022-11-30T15:48:40;7.80;99.90
20712;DHT22;10517;50.742;4.224;2022-11-30T15:51:15;7.90;99.90
20712;DHT22;10517;50.742;4.224;2022-11-30T15:53:49;7.80;99.90
20712;DHT22;10517;50.742;4.224;2022-11-30T15:56:23;7.70;99.90
20712;DHT22;10517;50.742;4.224;2022-11-30T16:01:27;7.70;99.90
20712;DHT22;10517;50.742;4.224;2022-11-30T16:06:25;7.70;99.90
20712;DHT22;10517;50.742;4.224;2022-11-30T16:08:52;7.70;99.90
20712;DHT22;10517;50.742;4.224;2022-11-30T16:11:18;7.70;99.90
20712;DHT22;10517;50.742;4.224;2022-11-30T16:13:44;7.60;99.90
20712;DHT22;10517;50.742;4.224;2022-11-30T16:16:13;7.60;99.90
20712;DHT22;10517;50.742;4.224;2022-11-30T16:18:44;7.60;99.90
20712;DHT22;10517;50.742;4.224;2022-11-30T16:21:11;7.50;99.90
20712;DHT22;10517;50.742;4.224;2022-11-30T16:23:37;7.50;99.90
20712;DHT22;10517;50.742;4.224;2022-11-30T16:26:04;7.50;99.90
20712;DHT22;10517;50.742;4.224;2022-11-30T16:28:30;7.50;99.90
20712;DHT22;10517;50.742;4.224;2022-11-30T16:30:58;7.50;99.90
20712;DHT22;10517;50.742;4.224;2022-11-30T16:33:24;7.30;99.90
20712;DHT22;10517;50.742;4.224;2022-11-30T16:35:55;7.30;99.90
20712;DHT22;10517;50.742;4.224;2022-11-30T16:38:21;7.30;99.90
20712;DHT22;10517;50.742;4.224;2022-11-30T16:40:47;7.30;99.90
20712;DHT22;10517;50.742;4.224;2022-11-30T16:43:13;7.40;99.90
20712;DHT22;10517;50.742;4.224;2022-11-30T16:45:40;7.40;99.90
20712;DHT22;10517;50.742;4.224;2022-11-30T16:48:06;7.40;99.90
20712;DHT22;10517;50.742;4.224;2022-11-30T16:50:32;7.40;99.90
20712;DHT22;10517;50.742;4.224;2022-11-30T16:52:59;7.20;99.90
20712;DHT22;10517;50.742;4.224;2022-11-30T16:55:29;7.20;99.90
20712;DHT22;10517;50.742;4.224;2022-11-30T16:57:55;7.20;99.90
20712;DHT22;10517;50.742;4.224;2022-11-30T17:00:21;7.20;99.90
20712;DHT22;10517;50.742;4.224;2022-11-30T17:05:24;7.30;99.90
20712;DHT22;10517;50.742;4.224;2022-11-30T17:07:50;7.40;99.90
20712;DHT22;10517;50.742;4.224;2022-11-30T17:10:15;7.50;99.90
20712;DHT22;10517;50.742;4.224;2022-11-30T17:12:41;7.40;99.90
20712;DHT22;10517;50.742;4.224;2022-11-30T17:15:13;7.30;99.90
20712;DHT22;10517;50.742;4.224;2022-11-30T17:17:39;7.30;99.90
20712;DHT22;10517;50.742;4.224;2022-11-30T17:20:06;7.30;99.90
20712;DHT22;10517;50.742;4.224;2022-11-30T17:22:33;7.30;99.90
20712;DHT22;10517;50.742;4.224;2022-11-30T17:25:01;7.40;99.90
20712;DHT22;10517;50.742;4.224;2022-11-30T17:27:27;7.40;99.90
20712;DHT22;10517;50.742;4.224;2022-11-30T17:29:53;7.50;99.90
20712;DHT22;10517;50.742;4.224;2022-11-30T17:32:18;7.50;99.90
20712;DHT22;10517;50.742;4.224;2022-11-30T17:34:44;7.60;99.90
20712;DHT22;10517;50.742;4.224;2022-11-30T17:37:09;7.70;99.90
20712;DHT22;10517;50.742;4.224;2022-11-30T17:39:38;7.70;99.90
20712;DHT22;10517;50.742;4.224;2022-11-30T17:42:03;7.60;99.90
20712;DHT22;10517;50.742;4.224;2022-11-30T17:44:29;7.60;99.90
20712;DHT22;10517;50.742;4.224;2022-11-30T17:46:55;7.70;99.90
20712;DHT22;10517;50.742;4.224;2022-11-30T17:49:20;7.70;99.90
20712;DHT22;10517;50.742;4.224;2022-11-30T17:51:46;7.70;99.90
20712;DHT22;10517;50.742;4.224;2022-11-30T17:54:11;7.80;99.90
20712;DHT22;10517;50.742;4.224;2022-11-30T17:56:37;7.80;99.90
20712;DHT22;10517;50.742;4.224;2022-11-30T17:59:02;7.90;99.90
20712;DHT22;10517;50.742;4.224;2022-11-30T18:01:28;7.90;99.90
20712;DHT22;10517;50.742;4.224;2022-11-30T18:03:55;7.90;99.90
20712;DHT22;10517;50.742;4.224;2022-11-30T18:06:20;8.00;99.90
20712;DHT22;10517;50.742;4.224;2022-11-30T18:08:46;7.90;99.90
20712;DHT22;10517;50.742;4.224;2022-11-30T18:11:15;7.70;99.90
20712;DHT22;10517;50.742;4.224;2022-11-30T18:13:41;7.60;99.90